createdAt,value
2019-02-24T00:00:07.322Z,18.20
2019-02-24T00:02:33.877Z,18.12
2019-02-24T00:05:00.445Z,18.92
2019-02-24T00:07:27.034Z,19.05
2019-02-24T00:09:53.637Z,20.57
2019-02-24T00:12:20.198Z,18.75
2019-02-24T00:14:46.778Z,18.50
2019-02-24T00:17:13.352Z,19.70
2019-02-24T00:19:39.942Z,18.87
2019-02-24T00:22:06.509Z,19.50
2019-02-24T00:24:33.058Z,19.45
2019-02-24T00:26:59.608Z,18.12
2019-02-24T00:29:26.233Z,20.60
2019-02-24T00:31:52.806Z,21.20
2019-02-24T00:34:19.348Z,18.90
2019-02-24T00:36:45.922Z,20.23
2019-02-24T00:39:12.466Z,19.60
2019-02-24T00:41:39.016Z,21.40
2019-02-24T00:44:05.594Z,21.02
2019-02-24T00:46:32.144Z,22.20
2019-02-24T00:48:58.725Z,23.90
2019-02-24T00:51:25.286Z,23.40
2019-02-24T00:53:51.853Z,22.93
2019-02-24T00:56:19.233Z,22.07
2019-02-24T00:58:45.815Z,21.45
2019-02-24T01:01:12.373Z,24.40
2019-02-24T01:03:38.933Z,25.90
2019-02-24T01:06:05.496Z,22.85
2019-02-24T01:08:32.081Z,25.08
2019-02-24T01:10:58.626Z,24.45
2019-02-24T01:13:25.188Z,23.92
2019-02-24T01:15:51.748Z,24.65
2019-02-24T01:18:18.322Z,25.95
2019-02-24T01:20:44.895Z,25.97
2019-02-24T01:23:11.455Z,26.10
2019-02-24T01:25:38.146Z,24.18
2019-02-24T01:28:04.736Z,26.37
2019-02-24T01:30:31.446Z,26.95
2019-02-24T01:32:58.015Z,25.02
2019-02-24T01:35:24.595Z,24.25
2019-02-24T01:37:51.162Z,24.20
2019-02-24T01:40:17.774Z,22.52
2019-02-24T01:42:44.350Z,23.52
2019-02-24T01:45:10.951Z,23.98
2019-02-24T01:47:37.595Z,24.37
2019-02-24T01:50:04.996Z,23.98
2019-02-24T01:52:31.550Z,22.50
2019-02-24T01:54:58.141Z,23.30
2019-02-24T01:57:24.678Z,24.72
2019-02-24T01:59:51.336Z,24.70
2019-02-24T02:02:17.880Z,23.60
2019-02-24T02:04:44.481Z,25.00
2019-02-24T02:07:11.026Z,24.92
2019-02-24T02:09:37.660Z,25.02
2019-02-24T02:12:04.357Z,25.27
2019-02-24T02:14:31.678Z,26.77
2019-02-24T02:16:59.701Z,26.10
2019-02-24T02:19:27.431Z,25.50
2019-02-24T02:21:53.954Z,23.42
2019-02-24T02:24:20.517Z,25.02
2019-02-24T02:26:47.066Z,22.05
2019-02-24T02:29:13.771Z,22.62
2019-02-24T02:31:40.318Z,20.23
2019-02-24T02:34:06.896Z,17.20
2019-02-24T02:36:33.458Z,17.80
2019-02-24T02:39:00.210Z,16.30
2019-02-24T02:41:26.752Z,16.10
2019-02-24T02:43:53.339Z,16.62
2019-02-24T02:46:19.890Z,15.72
2019-02-24T02:48:46.467Z,14.05
2019-02-24T02:51:13.016Z,15.53
2019-02-24T02:53:39.572Z,14.15
2019-02-24T02:56:06.123Z,14.28
2019-02-24T02:58:32.708Z,13.50
2019-02-24T03:00:59.291Z,14.58
2019-02-24T03:03:25.854Z,14.75
2019-02-24T03:06:00.363Z,13.38
2019-02-24T03:08:46.602Z,12.43
2019-02-24T03:11:13.698Z,11.97
2019-02-24T03:13:40.273Z,11.28
2019-02-24T03:16:06.850Z,11.15
2019-02-24T03:18:33.401Z,11.80
2019-02-24T03:20:59.964Z,11.88
2019-02-24T03:23:26.508Z,11.88
2019-02-24T03:25:53.086Z,12.10
2019-02-24T03:28:19.642Z,12.15
2019-02-24T03:30:46.210Z,11.55
2019-02-24T03:33:12.758Z,10.72
2019-02-24T03:35:39.332Z,12.40
2019-02-24T03:38:05.935Z,12.82
2019-02-24T03:40:32.504Z,13.05
2019-02-24T03:42:59.048Z,13.03
2019-02-24T03:45:25.617Z,12.15
2019-02-24T03:47:52.164Z,12.25
2019-02-24T03:50:18.751Z,14.28
2019-02-24T03:52:45.321Z,12.82
2019-02-24T03:55:11.915Z,13.13
2019-02-24T03:57:38.479Z,13.70
2019-02-24T04:00:05.315Z,13.18
2019-02-24T04:02:31.889Z,13.48
2019-02-24T04:04:58.480Z,14.05
2019-02-24T04:07:25.059Z,14.47
2019-02-24T04:09:51.776Z,15.15
2019-02-24T04:12:18.336Z,14.73
2019-02-24T04:14:44.922Z,13.70
2019-02-24T04:17:11.496Z,12.65
2019-02-24T04:19:38.042Z,13.43
2019-02-24T04:22:04.622Z,13.22
2019-02-24T04:24:31.182Z,13.20
2019-02-24T04:26:57.758Z,15.18
2019-02-24T04:29:25.121Z,14.55
2019-02-24T04:31:52.009Z,12.93
2019-02-24T04:34:18.579Z,12.28
2019-02-24T04:36:45.158Z,12.70
2019-02-24T04:39:12.406Z,13.20
2019-02-24T04:41:39.104Z,12.90
2019-02-24T04:44:05.667Z,13.20
2019-02-24T04:46:32.280Z,13.28
2019-02-24T04:48:58.929Z,11.68
2019-02-24T04:51:25.549Z,12.43
2019-02-24T04:53:52.131Z,12.03
2019-02-24T04:56:18.720Z,13.93
2019-02-24T04:58:45.395Z,14.10
2019-02-24T05:01:11.970Z,12.85
2019-02-24T05:03:38.593Z,14.58
2019-02-24T05:06:05.144Z,14.80
2019-02-24T05:08:31.704Z,15.32
2019-02-24T05:10:58.312Z,15.68
2019-02-24T05:13:24.886Z,14.87
2019-02-24T05:15:51.443Z,14.70
2019-02-24T05:18:18.007Z,13.95
2019-02-24T05:20:44.557Z,14.65
2019-02-24T05:23:11.120Z,14.50
2019-02-24T05:25:37.669Z,15.90
2019-02-24T05:28:04.233Z,15.68
2019-02-24T05:30:30.793Z,14.80
2019-02-24T05:32:57.369Z,14.70
2019-02-24T05:35:23.910Z,15.03
2019-02-24T05:37:50.473Z,15.35
2019-02-24T05:40:17.022Z,16.70
2019-02-24T05:42:43.589Z,16.30
2019-02-24T05:45:10.129Z,17.70
2019-02-24T05:47:36.724Z,16.82
2019-02-24T05:50:03.403Z,17.48
2019-02-24T05:52:30.114Z,18.77
2019-02-24T05:54:56.670Z,17.75
2019-02-24T05:57:23.257Z,17.90
2019-02-24T05:59:55.212Z,17.70
2019-02-24T06:02:18.286Z,17.73
2019-02-24T06:04:44.846Z,17.92
2019-02-24T06:07:11.403Z,17.42
2019-02-24T06:09:37.964Z,14.93
2019-02-24T06:12:04.513Z,16.75
2019-02-24T06:14:31.091Z,16.70
2019-02-24T06:16:57.649Z,15.90
2019-02-24T06:19:24.216Z,16.52
2019-02-24T06:21:50.766Z,16.00
2019-02-24T06:24:17.376Z,16.05
2019-02-24T06:26:43.936Z,16.37
2019-02-24T06:29:10.601Z,16.50
2019-02-24T06:31:37.150Z,18.13
2019-02-24T06:34:03.821Z,17.05
2019-02-24T06:36:30.372Z,17.52
2019-02-24T06:38:56.948Z,17.00
2019-02-24T06:41:23.491Z,16.10
2019-02-24T06:43:50.050Z,16.48
2019-02-24T06:46:16.594Z,17.37
2019-02-24T06:48:43.171Z,16.82
2019-02-24T06:51:10.753Z,16.40
2019-02-24T06:53:37.322Z,17.30
2019-02-24T06:56:03.881Z,16.48
2019-02-24T06:58:30.466Z,15.93
2019-02-24T07:00:57.039Z,16.85
2019-02-24T07:03:23.574Z,16.93
2019-02-24T07:05:50.142Z,14.65
2019-02-24T07:08:16.712Z,15.08
2019-02-24T07:10:43.267Z,13.70
2019-02-24T07:13:09.883Z,14.18
2019-02-24T07:15:36.475Z,13.28
2019-02-24T07:18:03.064Z,13.68
2019-02-24T07:20:29.671Z,11.57
2019-02-24T07:22:56.284Z,14.23
2019-02-24T07:25:22.848Z,11.35
2019-02-24T07:27:49.461Z,16.65
2019-02-24T07:30:23.166Z,15.15
2019-02-24T07:32:44.498Z,13.38
2019-02-24T07:35:11.065Z,14.23
2019-02-24T07:37:37.620Z,12.82
2019-02-24T07:40:04.194Z,14.47
2019-02-24T07:42:30.740Z,14.30
2019-02-24T07:44:57.297Z,16.00
2019-02-24T07:47:23.928Z,15.70
2019-02-24T07:49:50.487Z,15.45
2019-02-24T07:52:17.035Z,14.05
2019-02-24T07:54:43.627Z,16.23
2019-02-24T07:57:10.320Z,16.60
2019-02-24T07:59:36.889Z,16.02
2019-02-24T08:02:03.465Z,13.65
2019-02-24T08:04:30.048Z,15.13
2019-02-24T08:06:56.733Z,13.72
2019-02-24T08:09:23.293Z,12.73
2019-02-24T08:11:49.853Z,19.77
2019-02-24T08:14:16.399Z,17.00
2019-02-24T08:16:42.968Z,18.45
2019-02-24T08:19:09.527Z,18.65
2019-02-24T08:21:36.063Z,16.07
2019-02-24T08:24:02.628Z,17.10
2019-02-24T08:26:29.195Z,16.82
2019-02-24T08:28:55.772Z,14.05
2019-02-24T08:31:22.340Z,13.70
2019-02-24T08:33:48.884Z,14.53
2019-02-24T08:36:15.446Z,12.93
2019-02-24T08:38:42.009Z,13.58
2019-02-24T08:41:08.622Z,12.95
2019-02-24T08:43:35.174Z,13.38
2019-02-24T08:46:01.742Z,14.23
2019-02-24T08:48:28.278Z,14.20
2019-02-24T08:50:54.838Z,11.22
2019-02-24T08:53:21.382Z,11.45
2019-02-24T08:55:47.947Z,12.43
2019-02-24T08:58:14.500Z,11.53
2019-02-24T09:00:50.503Z,11.85
2019-02-24T09:03:09.522Z,11.65
2019-02-24T09:05:36.105Z,13.08
2019-02-24T09:08:02.675Z,12.90
2019-02-24T09:10:29.246Z,13.30
2019-02-24T09:12:56.379Z,12.55
2019-02-24T09:15:23.255Z,12.65
2019-02-24T09:17:49.821Z,13.15
2019-02-24T09:20:16.380Z,13.22
2019-02-24T09:22:43.053Z,13.40
2019-02-24T09:25:09.626Z,13.80
2019-02-24T09:27:36.226Z,12.50
2019-02-24T09:30:03.164Z,12.73
2019-02-24T09:32:29.738Z,11.75
2019-02-24T09:34:56.267Z,12.65
2019-02-24T09:37:22.824Z,13.08
2019-02-24T09:39:49.363Z,12.90
2019-02-24T09:42:15.922Z,11.95
2019-02-24T09:44:42.472Z,11.43
2019-02-24T09:47:09.029Z,12.15
2019-02-24T09:49:35.574Z,12.05
2019-02-24T09:52:02.150Z,12.88
2019-02-24T09:54:28.747Z,11.97
2019-02-24T09:56:55.305Z,11.28
2019-02-24T09:59:21.866Z,10.58
2019-02-24T10:01:48.493Z,11.15
2019-02-24T10:04:15.057Z,10.68
2019-02-24T10:06:41.636Z,11.08
2019-02-24T10:09:08.228Z,10.15
2019-02-24T10:11:34.813Z,10.72
2019-02-24T10:14:01.359Z,9.60
2019-02-24T10:16:27.965Z,10.38
2019-02-24T10:18:54.544Z,9.85
2019-02-24T10:21:21.154Z,10.43
2019-02-24T10:23:48.278Z,9.73
2019-02-24T10:26:14.961Z,9.95
2019-02-24T10:28:41.582Z,10.15
2019-02-24T10:31:08.166Z,9.78
2019-02-24T10:33:34.720Z,10.13
2019-02-24T10:36:01.277Z,9.93
2019-02-24T10:38:27.853Z,9.93
2019-02-24T10:40:54.399Z,9.53
2019-02-24T10:43:20.990Z,9.43
2019-02-24T10:45:47.537Z,9.53
2019-02-24T10:48:14.476Z,9.43
2019-02-24T10:50:42.817Z,9.33
2019-02-24T10:53:09.398Z,9.83
2019-02-24T10:55:35.951Z,9.90
2019-02-24T10:58:02.535Z,10.82
2019-02-24T11:00:29.075Z,10.20
2019-02-24T11:02:55.638Z,10.10
2019-02-24T11:05:22.216Z,10.63
2019-02-24T11:07:48.773Z,9.53
2019-02-24T11:10:15.325Z,9.48
2019-02-24T11:12:41.904Z,8.10
2019-02-24T11:15:08.504Z,8.90
2019-02-24T11:17:35.066Z,8.60
2019-02-24T11:20:01.634Z,7.87
2019-02-24T11:22:28.207Z,7.75
2019-02-24T11:24:54.774Z,8.30
2019-02-24T11:27:21.376Z,6.08
2019-02-24T11:29:47.910Z,7.35
2019-02-24T11:32:14.504Z,7.47
2019-02-24T11:34:41.044Z,8.03
2019-02-24T11:37:07.851Z,7.62
2019-02-24T11:39:34.396Z,7.35
2019-02-24T11:42:00.944Z,6.22
2019-02-24T11:44:27.516Z,7.08
2019-02-24T11:46:54.110Z,7.35
2019-02-24T11:49:20.688Z,6.92
2019-02-24T11:51:47.286Z,6.42
2019-02-24T11:54:13.845Z,6.65
2019-02-24T11:56:40.438Z,6.15
2019-02-24T11:59:07.010Z,6.47
2019-02-24T12:01:33.551Z,6.58
2019-02-24T12:04:00.116Z,5.87
2019-02-24T12:06:26.656Z,5.55
2019-02-24T12:08:53.217Z,5.70
2019-02-24T12:11:19.788Z,5.12
2019-02-24T12:13:46.326Z,4.20
2019-02-24T12:16:12.962Z,4.60
2019-02-24T12:18:39.500Z,5.50
2019-02-24T12:21:06.100Z,5.40
2019-02-24T12:23:32.663Z,5.50
2019-02-24T12:25:59.254Z,5.42
2019-02-24T12:28:25.854Z,5.53
2019-02-24T12:30:52.443Z,5.35
2019-02-24T12:33:19.014Z,5.97
2019-02-24T12:35:45.587Z,4.97
2019-02-24T12:38:12.131Z,4.70
2019-02-24T12:40:38.899Z,5.03
2019-02-24T12:43:05.480Z,3.62
2019-02-24T12:45:32.056Z,4.62
2019-02-24T12:48:00.354Z,2.60
2019-02-24T12:50:27.017Z,3.60
2019-02-24T12:52:53.575Z,3.77
2019-02-24T12:55:20.164Z,3.65
2019-02-24T12:57:46.707Z,3.55
2019-02-24T13:00:15.836Z,3.72
2019-02-24T13:02:42.389Z,3.43
2019-02-24T13:05:08.966Z,3.20
2019-02-24T13:07:35.552Z,3.17
2019-02-24T13:10:02.350Z,3.50
2019-02-24T13:15:03.435Z,3.33
2019-02-24T13:17:30.093Z,3.00
2019-02-24T13:19:56.717Z,3.30
2019-02-24T13:22:23.260Z,3.47
2019-02-24T13:24:49.867Z,2.87
2019-02-24T13:27:16.430Z,2.55
2019-02-24T13:29:43.007Z,3.12
2019-02-24T13:32:14.953Z,2.60
2019-02-24T13:34:38.037Z,3.00
2019-02-24T13:37:04.583Z,2.98
2019-02-24T13:39:31.152Z,4.17
2019-02-24T13:41:57.733Z,4.90
2019-02-24T13:44:24.316Z,4.65
2019-02-24T13:46:50.856Z,5.12
2019-02-24T13:49:17.461Z,5.50
2019-02-24T13:51:44.040Z,4.85
2019-02-24T13:54:10.575Z,4.67
2019-02-24T13:56:37.195Z,4.90
2019-02-24T13:59:03.810Z,4.87
2019-02-24T14:01:30.491Z,4.42
2019-02-24T14:03:57.071Z,5.15
2019-02-24T14:06:24.968Z,5.87
2019-02-24T14:08:51.514Z,5.45
2019-02-24T14:11:18.083Z,5.58
2019-02-24T14:13:44.642Z,5.03
2019-02-24T14:16:11.212Z,5.40
2019-02-24T14:18:37.875Z,5.62
2019-02-24T14:21:04.458Z,5.28
2019-02-24T14:23:31.013Z,4.17
2019-02-24T14:25:57.588Z,4.15
2019-02-24T14:28:24.203Z,4.78
2019-02-24T14:30:50.774Z,4.37
2019-02-24T14:33:17.363Z,4.80
2019-02-24T14:35:43.937Z,5.42
2019-02-24T14:38:10.578Z,5.37
2019-02-24T14:40:37.153Z,5.40
2019-02-24T14:43:03.726Z,5.55
2019-02-24T14:45:30.291Z,6.05
2019-02-24T14:47:56.880Z,6.60
2019-02-24T14:50:23.463Z,6.55
2019-02-24T14:52:50.013Z,6.47
2019-02-24T14:55:16.633Z,6.60
2019-02-24T14:57:43.291Z,6.45
2019-02-24T15:00:10.952Z,6.50
2019-02-24T15:02:42.433Z,6.47
2019-02-24T15:05:06.862Z,6.87
2019-02-24T15:07:33.408Z,6.65
2019-02-24T15:09:59.967Z,6.12
2019-02-24T15:12:26.531Z,5.83
2019-02-24T15:14:53.189Z,6.87
2019-02-24T15:17:19.752Z,6.53
2019-02-24T15:19:46.287Z,6.40
2019-02-24T15:22:12.854Z,6.05
2019-02-24T15:24:39.396Z,6.28
2019-02-24T15:27:05.972Z,6.78
2019-02-24T15:29:32.519Z,6.05
2019-02-24T15:31:59.118Z,7.12
2019-02-24T15:34:25.714Z,7.37
2019-02-24T15:36:52.300Z,6.85
2019-02-24T15:39:18.955Z,8.03
2019-02-24T15:41:45.621Z,7.67
2019-02-24T15:44:12.423Z,6.80
2019-02-24T15:46:39.208Z,6.17
2019-02-24T15:49:05.746Z,5.53
2019-02-24T15:51:32.332Z,6.12
2019-02-24T15:53:58.871Z,5.12
2019-02-24T15:56:25.434Z,5.15
2019-02-24T15:58:51.969Z,4.95
2019-02-24T16:01:18.525Z,4.90
2019-02-24T16:03:45.098Z,4.62
2019-02-24T16:06:11.676Z,4.15
2019-02-24T16:08:38.218Z,3.85
2019-02-24T16:11:04.777Z,4.40
2019-02-24T16:13:31.332Z,4.60
2019-02-24T16:15:57.864Z,4.50
2019-02-24T16:18:24.431Z,4.05
2019-02-24T16:20:50.964Z,4.05
2019-02-24T16:23:17.533Z,3.98
2019-02-24T16:25:44.068Z,4.15
2019-02-24T16:28:10.627Z,3.85
2019-02-24T16:30:37.179Z,4.00
2019-02-24T16:33:10.204Z,3.50
2019-02-24T16:35:32.341Z,3.02
2019-02-24T16:37:58.913Z,3.12
2019-02-24T16:40:25.530Z,3.10
2019-02-24T16:42:52.080Z,3.20
2019-02-24T16:45:18.643Z,4.42
2019-02-24T16:47:45.211Z,4.35
2019-02-24T16:50:12.781Z,3.83
2019-02-24T16:52:39.347Z,4.00
2019-02-24T16:55:07.082Z,4.10
2019-02-24T16:57:33.630Z,4.40
2019-02-24T17:00:00.301Z,3.70
2019-02-24T17:02:26.872Z,4.20
2019-02-24T17:04:53.414Z,4.70
2019-02-24T17:07:19.989Z,4.28
2019-02-24T17:09:46.528Z,4.12
2019-02-24T17:12:13.099Z,4.05
2019-02-24T17:14:39.699Z,4.40
2019-02-24T17:17:07.642Z,3.92
2019-02-24T17:19:34.197Z,4.10
2019-02-24T17:22:00.738Z,4.22
2019-02-24T17:24:27.303Z,4.00
2019-02-24T17:26:53.848Z,3.87
2019-02-24T17:29:20.403Z,3.70
2019-02-24T17:31:46.962Z,3.98
2019-02-24T17:34:13.532Z,3.52
2019-02-24T17:36:40.125Z,3.98
2019-02-24T17:39:06.696Z,3.62
2019-02-24T17:41:33.247Z,3.58
2019-02-24T17:43:59.859Z,3.67
2019-02-24T17:46:26.398Z,3.30
2019-02-24T17:48:52.954Z,3.30
2019-02-24T17:51:21.551Z,3.27
2019-02-24T17:53:47.979Z,3.60
2019-02-24T17:56:14.541Z,2.95
2019-02-24T17:58:41.233Z,3.10
2019-02-24T18:01:07.888Z,2.83
2019-02-24T18:03:39.584Z,2.90
2019-02-24T18:06:02.925Z,2.47
2019-02-24T18:08:29.487Z,3.20
2019-02-24T18:10:56.024Z,6.20
2019-02-24T18:13:22.583Z,5.17
2019-02-24T18:15:49.128Z,7.22
2019-02-24T18:18:15.695Z,11.10
2019-02-24T18:20:42.262Z,8.33
2019-02-24T18:23:08.820Z,8.33
2019-02-24T18:25:35.442Z,6.40
2019-02-24T18:28:02.089Z,5.08
2019-02-24T18:30:28.760Z,3.15
2019-02-24T18:32:55.349Z,4.72
2019-02-24T18:35:21.902Z,2.55
2019-02-24T18:37:48.460Z,3.05
2019-02-24T18:40:15.279Z,2.35
2019-02-24T18:42:41.808Z,3.00
2019-02-24T18:45:08.844Z,3.20
2019-02-24T18:47:35.383Z,3.98
2019-02-24T18:50:02.084Z,4.20
2019-02-24T18:52:28.618Z,11.83
2019-02-24T18:54:55.221Z,7.45
2019-02-24T18:57:21.766Z,4.90
2019-02-24T18:59:48.350Z,3.55
2019-02-24T19:02:14.906Z,3.22
2019-02-24T19:04:41.490Z,3.27
2019-02-24T19:07:08.020Z,3.60
2019-02-24T19:09:34.708Z,3.58
2019-02-24T19:12:01.273Z,4.70
2019-02-24T19:14:27.824Z,5.35
2019-02-24T19:16:54.368Z,5.08
2019-02-24T19:19:25.553Z,7.78
2019-02-24T19:21:49.387Z,8.08
2019-02-24T19:24:15.967Z,17.10
2019-02-24T19:26:42.494Z,13.70
2019-02-24T19:29:09.132Z,14.20
2019-02-24T19:31:35.661Z,13.55
2019-02-24T19:34:06.588Z,13.43
2019-02-24T19:36:30.643Z,11.73
2019-02-24T19:38:57.188Z,11.93
2019-02-24T19:41:23.748Z,11.35
2019-02-24T19:43:50.325Z,10.18
2019-02-24T19:46:16.888Z,12.78
2019-02-24T19:48:43.444Z,12.07
2019-02-24T19:51:10.013Z,13.08
2019-02-24T19:53:36.553Z,11.08
2019-02-24T19:56:03.107Z,8.45
2019-02-24T19:58:29.643Z,9.25
2019-02-24T20:00:56.202Z,7.70
2019-02-24T20:03:22.941Z,5.55
2019-02-24T20:05:49.494Z,5.25
2019-02-24T20:08:17.343Z,5.20
2019-02-24T20:10:43.903Z,4.28
2019-02-24T20:13:10.460Z,4.75
2019-02-24T20:15:36.990Z,4.65
2019-02-24T20:18:03.549Z,4.42
2019-02-24T20:20:30.106Z,7.42
2019-02-24T20:22:56.640Z,10.65
2019-02-24T20:25:23.204Z,10.10
2019-02-24T20:27:49.787Z,9.55
2019-02-24T20:30:21.357Z,9.13
2019-02-24T20:32:47.985Z,8.75
2019-02-24T20:35:14.541Z,9.43
2019-02-24T20:37:41.132Z,7.65
2019-02-24T20:40:07.685Z,7.67
2019-02-24T20:42:34.296Z,8.08
2019-02-24T20:45:00.829Z,7.80
2019-02-24T20:47:27.402Z,7.15
2019-02-24T20:49:53.946Z,7.83
2019-02-24T20:52:20.557Z,7.78
2019-02-24T20:54:47.118Z,7.10
2019-02-24T20:57:13.683Z,7.10
2019-02-24T20:59:40.255Z,6.75
2019-02-24T21:02:07.230Z,6.50
2019-02-24T21:04:33.803Z,6.05
2019-02-24T21:07:00.384Z,6.08
2019-02-24T21:09:26.940Z,6.72
2019-02-24T21:11:53.497Z,6.50
2019-02-24T21:14:20.041Z,6.97
2019-02-24T21:16:46.620Z,7.28
2019-02-24T21:19:13.162Z,11.40
2019-02-24T21:21:39.755Z,9.93
2019-02-24T21:24:06.303Z,10.00
2019-02-24T21:26:32.925Z,8.70
2019-02-24T21:28:59.491Z,9.45
2019-02-24T21:31:26.158Z,9.10
2019-02-24T21:33:52.727Z,9.50
2019-02-24T21:36:19.290Z,8.48
2019-02-24T21:38:45.835Z,8.83
2019-02-24T21:41:12.400Z,8.95
2019-02-24T21:43:38.947Z,8.35
2019-02-24T21:46:05.518Z,8.75
2019-02-24T21:48:32.068Z,9.48
2019-02-24T21:50:58.643Z,9.25
2019-02-24T21:53:25.193Z,9.95
2019-02-24T21:55:51.779Z,8.80
2019-02-24T21:58:18.340Z,9.35
2019-02-24T22:00:45.070Z,9.53
2019-02-24T22:03:11.646Z,9.00
2019-02-24T22:05:38.242Z,9.28
2019-02-24T22:08:04.788Z,9.20
2019-02-24T22:10:31.381Z,8.40
2019-02-24T22:12:59.415Z,7.83
2019-02-24T22:15:26.185Z,6.53
2019-02-24T22:17:52.803Z,7.45
2019-02-24T22:20:19.366Z,6.92
2019-02-24T22:22:46.036Z,6.03
2019-02-24T22:25:12.632Z,6.90
2019-02-24T22:27:39.211Z,7.62
2019-02-24T22:30:07.718Z,8.48
2019-02-24T22:32:34.291Z,7.92
2019-02-24T22:35:00.922Z,6.92
2019-02-24T22:37:27.515Z,7.35
2019-02-24T22:39:54.075Z,6.87
2019-02-24T22:42:20.649Z,7.58
2019-02-24T22:44:47.204Z,7.35
2019-02-24T22:47:13.768Z,7.75
2019-02-24T22:49:40.389Z,7.62
2019-02-24T22:52:06.940Z,7.40
2019-02-24T22:54:33.597Z,6.15
2019-02-24T22:57:00.177Z,7.70
2019-02-24T22:59:26.748Z,8.03
2019-02-24T23:01:53.478Z,7.42
2019-02-24T23:04:20.069Z,7.12
2019-02-24T23:06:46.636Z,7.17
2019-02-24T23:09:19.928Z,7.30
2019-02-24T23:11:46.598Z,6.60
2019-02-24T23:14:13.233Z,6.05
2019-02-24T23:16:39.719Z,6.20
2019-02-24T23:19:06.280Z,6.53
2019-02-24T23:21:32.846Z,6.60
2019-02-24T23:23:59.414Z,6.87
2019-02-24T23:26:25.950Z,7.03
2019-02-24T23:28:52.519Z,6.33
2019-02-24T23:31:19.076Z,9.03
2019-02-24T23:33:45.656Z,8.63
2019-02-24T23:36:12.211Z,8.65
2019-02-24T23:38:38.798Z,8.30
2019-02-24T23:41:05.342Z,8.13
2019-02-24T23:43:32.028Z,8.23
2019-02-24T23:45:58.594Z,8.90
2019-02-24T23:48:25.172Z,8.93
2019-02-24T23:50:51.746Z,8.83
2019-02-24T23:53:18.445Z,9.18
2019-02-24T23:55:45.009Z,10.05
2019-02-24T23:58:11.742Z,9.18
